Volborg, MT

7:13 AM MDT on August 20, 2014 (GMT -0600)
Wiley | Change Station
CLOSE
Current Station
Airport
Location: Miles City,
Elevation: 2628 ft
Nearby Weather Stations

Elev 2628 ft 46.43 °N, 105.88 °W | Updated 20 minutes ago

Mostly Cloudy
Mostly Cloudy
72 °F
Feels Like 72 °F
N
10
Wind Variable Wind from West

Today
High -- | Low -- °F
--% Chance of Precip.
Yesterday
High -- | Low -- °F
Precip. -- in
6:08 AM 8:02 PM
Waning Crescent, 22% visible
Pressure 29.60 in
Visibility 10.0 miles
Clouds Mostly Cloudy 11000 ft
Dew Point 45 °F
Humidity 38%
Rainfall 0.00 in
Snow Depth Not available.
UV 0 out of 12
Pollen 9.10 out of 12
Air Quality Not available.
Flu Activity Not available.
METAR KMLS 201253Z AUTO 27009KT 10SM BKN110 22/07 A2967 RMK AO2 SLP023 T02220072

More Conditions Fewer Conditions

Pressure 29.60 in
Visibility 10.0 miles
Clouds Mostly Cloudy 11000 ft
Dew Point 45 °F
Humidity 38%
Rainfall 0.00 in
Snow Depth Not available.
UV 0 out of 12
Pollen 9.10 out of 12
Air Quality Not available.
Flu Activity Not available.
METAR KMLS 201253Z AUTO 27009KT 10SM BKN110 22/07 A2967 RMK AO2 SLP023 T02220072

More Conditions Fewer Conditions

10-Day Weather Forecast

Almanac

Astronomy

Aug. 20, 2014 Rise Set
Actual Time 6:08 AM MDT 8:02 PM MDT
Civil Twilight 5:36 AM MDT 8:34 PM MDT
Nautical Twilight 4:56 AM MDT 9:13 PM MDT
Astronomical Twilight 4:13 AM MDT 9:56 PM MDT
Moon 1:44 AM MDT 4:55 PM MDT
Length of Visible Light 14h 58m
Length of Day
13h 54m
Tomorrow will be 2m 59s shorter.
Waning Crescent, 22% of the Moon is Illuminated
Today
Waning Crescent
Aug 25
New
Sep 2
First Quarter
Sep 8
Full
Sep 15
Last Quarter

Today's Extremes

State Highs State Lows

Community

WunderPhotos

Upload Photos

1,745,623 photos uploaded!

Nearby

Snow Depth

Station Depth Elevation
Cole Creek 0 in 7850 ft
Crystal Lake 0 in 6050 ft
Burnt Mountain 0 in 5880 ft
White Mill 1 in 8700 ft
Fisher Creek 0 in 9100 ft

Earthquake Activity

City Distance Mag. Time & Date
No recent earthquake activity has been reported nearby.
Minimum magnitude displayed is 2.5.

Coastal Water Temperatures

Place Temperature
No Stations Reporting

Nearby Weather Stations